sensor_id;sensor_type;location;lat;lon;timestamp;P1;durP1;ratioP1;P2;durP2;ratioP2
58926;SDS011;44712;52.530;9.760;2022-09-09T00:02:05;10.35;;;8.43;;
58926;SDS011;44712;52.530;9.760;2022-09-09T00:04:45;11.65;;;8.00;;
58926;SDS011;44712;52.530;9.760;2022-09-09T00:07:47;12.38;;;8.20;;
58926;SDS011;44712;52.530;9.760;2022-09-09T00:13:18;11.90;;;8.30;;
58926;SDS011;44712;52.530;9.760;2022-09-09T00:21:15;11.52;;;7.15;;
58926;SDS011;44712;52.530;9.760;2022-09-09T00:23:55;8.77;;;7.10;;
58926;SDS011;44712;52.530;9.760;2022-09-09T00:31:35;10.13;;;7.40;;
58926;SDS011;44712;52.530;9.760;2022-09-09T00:36:41;10.05;;;7.28;;
58926;SDS011;44712;52.530;9.760;2022-09-09T00:39:23;9.70;;;7.47;;
58926;SDS011;44712;52.530;9.760;2022-09-09T00:42:02;10.00;;;6.75;;
58926;SDS011;44712;52.530;9.760;2022-09-09T00:45:02;8.23;;;6.60;;
58926;SDS011;44712;52.530;9.760;2022-09-09T00:47:59;11.70;;;6.40;;
58926;SDS011;44712;52.530;9.760;2022-09-09T00:56:08;10.77;;;6.30;;
58926;SDS011;44712;52.530;9.760;2022-09-09T00:58:35;8.88;;;6.10;;
58926;SDS011;44712;52.530;9.760;2022-09-09T01:01:07;9.27;;;6.50;;
58926;SDS011;44712;52.530;9.760;2022-09-09T01:03:42;8.10;;;6.68;;
58926;SDS011;44712;52.530;9.760;2022-09-09T01:09:27;7.93;;;6.07;;
58926;SDS011;44712;52.530;9.760;2022-09-09T01:12:12;8.55;;;5.90;;
58926;SDS011;44712;52.530;9.760;2022-09-09T01:14:47;8.45;;;5.50;;
58926;SDS011;44712;52.530;9.760;2022-09-09T01:20:02;7.30;;;5.30;;
58926;SDS011;44712;52.530;9.760;2022-09-09T01:28:19;3.72;;;2.80;;
58926;SDS011;44712;52.530;9.760;2022-09-09T01:30:52;5.80;;;4.75;;
58926;SDS011;44712;52.530;9.760;2022-09-09T01:33:23;6.78;;;4.35;;
58926;SDS011;44712;52.530;9.760;2022-09-09T01:38:29;4.40;;;3.20;;
58926;SDS011;44712;52.530;9.760;2022-09-09T01:40:58;3.38;;;2.35;;
58926;SDS011;44712;52.530;9.760;2022-09-09T01:43:40;2.58;;;2.30;;
58926;SDS011;44712;52.530;9.760;2022-09-09T01:46:07;5.63;;;4.00;;
58926;SDS011;44712;52.530;9.760;2022-09-09T01:48:35;4.47;;;3.25;;
58926;SDS011;44712;52.530;9.760;2022-09-09T01:51:07;4.03;;;3.63;;
58926;SDS011;44712;52.530;9.760;2022-09-09T01:53:37;6.63;;;4.00;;
58926;SDS011;44712;52.530;9.760;2022-09-09T02:01:59;4.07;;;3.40;;
58926;SDS011;44712;52.530;9.760;2022-09-09T02:04:39;5.97;;;3.33;;
58926;SDS011;44712;52.530;9.760;2022-09-09T02:10:09;4.38;;;3.40;;
58926;SDS011;44712;52.530;9.760;2022-09-09T02:13:01;4.43;;;3.45;;
58926;SDS011;44712;52.530;9.760;2022-09-09T02:15:41;6.95;;;3.45;;
58926;SDS011;44712;52.530;9.760;2022-09-09T02:18:12;5.57;;;3.50;;
58926;SDS011;44712;52.530;9.760;2022-09-09T02:20:43;4.85;;;3.13;;
58926;SDS011;44712;52.530;9.760;2022-09-09T02:23:12;6.43;;;3.00;;
58926;SDS011;44712;52.530;9.760;2022-09-09T02:25:42;5.75;;;3.22;;
58926;SDS011;44712;52.530;9.760;2022-09-09T02:28:18;5.25;;;3.35;;
58926;SDS011;44712;52.530;9.760;2022-09-09T02:30:56;4.03;;;2.90;;
58926;SDS011;44712;52.530;9.760;2022-09-09T02:33:36;3.08;;;2.63;;
58926;SDS011;44712;52.530;9.760;2022-09-09T02:36:08;3.38;;;2.58;;
58926;SDS011;44712;52.530;9.760;2022-09-09T02:38:47;3.20;;;2.72;;
58926;SDS011;44712;52.530;9.760;2022-09-09T02:41:24;5.35;;;2.42;;
58926;SDS011;44712;52.530;9.760;2022-09-09T02:43:56;4.90;;;2.75;;
58926;SDS011;44712;52.530;9.760;2022-09-09T02:46:34;6.85;;;2.17;;
58926;SDS011;44712;52.530;9.760;2022-09-09T02:49:19;3.47;;;2.20;;
58926;SDS011;44712;52.530;9.760;2022-09-09T02:52:00;3.92;;;2.10;;
58926;SDS011;44712;52.530;9.760;2022-09-09T02:54:34;4.22;;;2.08;;
58926;SDS011;44712;52.530;9.760;2022-09-09T02:59:40;5.05;;;2.08;;
58926;SDS011;44712;52.530;9.760;2022-09-09T03:02:07;5.05;;;2.30;;
58926;SDS011;44712;52.530;9.760;2022-09-09T03:04:41;5.47;;;2.30;;
58926;SDS011;44712;52.530;9.760;2022-09-09T03:07:17;3.67;;;2.15;;
58926;SDS011;44712;52.530;9.760;2022-09-09T03:09:45;3.97;;;2.30;;
58926;SDS011;44712;52.530;9.760;2022-09-09T03:12:12;2.55;;;1.95;;
58926;SDS011;44712;52.530;9.760;2022-09-09T03:14:39;2.65;;;1.90;;
58926;SDS011;44712;52.530;9.760;2022-09-09T03:17:06;3.95;;;2.35;;
58926;SDS011;44712;52.530;9.760;2022-09-09T03:19:37;4.95;;;2.75;;
58926;SDS011;44712;52.530;9.760;2022-09-09T03:22:07;3.45;;;2.20;;
58926;SDS011;44712;52.530;9.760;2022-09-09T03:24:38;3.53;;;2.10;;
58926;SDS011;44712;52.530;9.760;2022-09-09T03:27:05;7.05;;;2.60;;
58926;SDS011;44712;52.530;9.760;2022-09-09T03:29:33;6.40;;;2.30;;
58926;SDS011;44712;52.530;9.760;2022-09-09T03:32:02;3.03;;;2.28;;
58926;SDS011;44712;52.530;9.760;2022-09-09T03:34:29;3.67;;;2.80;;
58926;SDS011;44712;52.530;9.760;2022-09-09T03:36:57;6.03;;;2.53;;
58926;SDS011;44712;52.530;9.760;2022-09-09T03:39:25;5.70;;;2.25;;
58926;SDS011;44712;52.530;9.760;2022-09-09T03:41:52;5.65;;;2.22;;
58926;SDS011;44712;52.530;9.760;2022-09-09T03:44:19;3.25;;;2.20;;
58926;SDS011;44712;52.530;9.760;2022-09-09T03:46:46;5.57;;;2.38;;
58926;SDS011;44712;52.530;9.760;2022-09-09T03:49:13;3.80;;;2.30;;
58926;SDS011;44712;52.530;9.760;2022-09-09T03:51:40;3.83;;;2.33;;
58926;SDS011;44712;52.530;9.760;2022-09-09T03:54:09;5.57;;;2.45;;
58926;SDS011;44712;52.530;9.760;2022-09-09T03:56:36;4.55;;;2.25;;
58926;SDS011;44712;52.530;9.760;2022-09-09T03:59:03;4.00;;;2.47;;
58926;SDS011;44712;52.530;9.760;2022-09-09T04:01:30;4.78;;;2.50;;
58926;SDS011;44712;52.530;9.760;2022-09-09T04:03:57;4.32;;;2.22;;
58926;SDS011;44712;52.530;9.760;2022-09-09T04:06:24;4.32;;;2.00;;
58926;SDS011;44712;52.530;9.760;2022-09-09T04:08:52;6.93;;;2.97;;
58926;SDS011;44712;52.530;9.760;2022-09-09T04:11:20;4.20;;;2.30;;
58926;SDS011;44712;52.530;9.760;2022-09-09T04:13:50;3.75;;;2.33;;
58926;SDS011;44712;52.530;9.760;2022-09-09T04:16:17;2.92;;;1.92;;
58926;SDS011;44712;52.530;9.760;2022-09-09T04:18:45;4.03;;;2.47;;
58926;SDS011;44712;52.530;9.760;2022-09-09T04:21:14;6.35;;;3.03;;
58926;SDS011;44712;52.530;9.760;2022-09-09T04:23:42;5.25;;;2.47;;
58926;SDS011;44712;52.530;9.760;2022-09-09T04:26:09;3.63;;;2.25;;
58926;SDS011;44712;52.530;9.760;2022-09-09T04:28:37;3.03;;;2.30;;
58926;SDS011;44712;52.530;9.760;2022-09-09T04:31:12;2.88;;;2.40;;
58926;SDS011;44712;52.530;9.760;2022-09-09T04:33:43;3.33;;;2.22;;
58926;SDS011;44712;52.530;9.760;2022-09-09T04:36:13;7.65;;;2.50;;
58926;SDS011;44712;52.530;9.760;2022-09-09T04:38:42;3.90;;;2.40;;
58926;SDS011;44712;52.530;9.760;2022-09-09T04:41:11;4.05;;;2.47;;
58926;SDS011;44712;52.530;9.760;2022-09-09T04:43:40;4.25;;;2.40;;
58926;SDS011;44712;52.530;9.760;2022-09-09T04:46:08;4.47;;;2.35;;
58926;SDS011;44712;52.530;9.760;2022-09-09T04:48:35;7.20;;;2.80;;
58926;SDS011;44712;52.530;9.760;2022-09-09T04:51:05;6.32;;;2.38;;
58926;SDS011;44712;52.530;9.760;2022-09-09T04:53:34;4.82;;;2.45;;
58926;SDS011;44712;52.530;9.760;2022-09-09T04:56:05;4.50;;;3.00;;
58926;SDS011;44712;52.530;9.760;2022-09-09T04:58:36;5.43;;;3.28;;
58926;SDS011;44712;52.530;9.760;2022-09-09T05:01:05;4.57;;;3.03;;
58926;SDS011;44712;52.530;9.760;2022-09-09T05:03:35;3.25;;;2.53;;
58926;SDS011;44712;52.530;9.760;2022-09-09T05:06:05;5.78;;;2.80;;
58926;SDS011;44712;52.530;9.760;2022-09-09T05:08:40;5.10;;;3.03;;
58926;SDS011;44712;52.530;9.760;2022-09-09T05:11:13;7.70;;;2.97;;
58926;SDS011;44712;52.530;9.760;2022-09-09T05:13:43;4.60;;;2.95;;
58926;SDS011;44712;52.530;9.760;2022-09-09T05:16:13;4.72;;;2.67;;
58926;SDS011;44712;52.530;9.760;2022-09-09T05:18:40;6.75;;;2.70;;
58926;SDS011;44712;52.530;9.760;2022-09-09T05:21:12;4.40;;;3.00;;
58926;SDS011;44712;52.530;9.760;2022-09-09T05:23:40;7.28;;;3.20;;
58926;SDS011;44712;52.530;9.760;2022-09-09T05:26:08;5.65;;;2.75;;
58926;SDS011;44712;52.530;9.760;2022-09-09T05:28:45;5.53;;;2.90;;
58926;SDS011;44712;52.530;9.760;2022-09-09T05:31:12;6.35;;;2.70;;
58926;SDS011;44712;52.530;9.760;2022-09-09T05:33:46;4.85;;;3.03;;
58926;SDS011;44712;52.530;9.760;2022-09-09T05:36:19;3.65;;;2.70;;
58926;SDS011;44712;52.530;9.760;2022-09-09T05:38:50;4.80;;;2.78;;
58926;SDS011;44712;52.530;9.760;2022-09-09T05:41:20;5.60;;;3.42;;
58926;SDS011;44712;52.530;9.760;2022-09-09T05:43:48;4.15;;;2.92;;
58926;SDS011;44712;52.530;9.760;2022-09-09T05:46:19;4.50;;;3.13;;
58926;SDS011;44712;52.530;9.760;2022-09-09T05:48:50;5.40;;;2.95;;
58926;SDS011;44712;52.530;9.760;2022-09-09T05:51:23;7.70;;;2.90;;
58926;SDS011;44712;52.530;9.760;2022-09-09T05:53:54;6.03;;;2.60;;
58926;SDS011;44712;52.530;9.760;2022-09-09T05:56:27;4.95;;;2.50;;
58926;SDS011;44712;52.530;9.760;2022-09-09T05:58:56;4.28;;;2.58;;
58926;SDS011;44712;52.530;9.760;2022-09-09T06:01:24;5.40;;;2.78;;
58926;SDS011;44712;52.530;9.760;2022-09-09T06:03:53;3.75;;;2.35;;
58926;SDS011;44712;52.530;9.760;2022-09-09T06:06:23;5.40;;;2.70;;
58926;SDS011;44712;52.530;9.760;2022-09-09T06:08:57;5.20;;;3.03;;
58926;SDS011;44712;52.530;9.760;2022-09-09T06:11:29;4.93;;;2.55;;
58926;SDS011;44712;52.530;9.760;2022-09-09T06:14:02;3.97;;;2.40;;
58926;SDS011;44712;52.530;9.760;2022-09-09T06:16:30;4.05;;;2.60;;
58926;SDS011;44712;52.530;9.760;2022-09-09T06:19:01;6.95;;;2.78;;
58926;SDS011;44712;52.530;9.760;2022-09-09T06:21:30;4.45;;;2.85;;
58926;SDS011;44712;52.530;9.760;2022-09-09T06:24:01;6.53;;;2.90;;
58926;SDS011;44712;52.530;9.760;2022-09-09T06:26:29;5.10;;;2.50;;
58926;SDS011;44712;52.530;9.760;2022-09-09T06:29:00;4.88;;;3.30;;
58926;SDS011;44712;52.530;9.760;2022-09-09T06:31:31;5.10;;;2.80;;
58926;SDS011;44712;52.530;9.760;2022-09-09T06:34:07;7.53;;;3.15;;
58926;SDS011;44712;52.530;9.760;2022-09-09T06:36:38;5.82;;;3.00;;
58926;SDS011;44712;52.530;9.760;2022-09-09T06:39:08;4.32;;;2.75;;
58926;SDS011;44712;52.530;9.760;2022-09-09T06:41:40;6.68;;;3.50;;
58926;SDS011;44712;52.530;9.760;2022-09-09T06:44:23;4.45;;;2.92;;
58926;SDS011;44712;52.530;9.760;2022-09-09T06:46:57;5.25;;;2.88;;
58926;SDS011;44712;52.530;9.760;2022-09-09T06:49:27;6.07;;;3.42;;
58926;SDS011;44712;52.530;9.760;2022-09-09T06:51:54;7.30;;;3.70;;
58926;SDS011;44712;52.530;9.760;2022-09-09T06:54:21;7.40;;;3.80;;
58926;SDS011;44712;52.530;9.760;2022-09-09T06:56:49;6.45;;;4.25;;
58926;SDS011;44712;52.530;9.760;2022-09-09T06:59:21;6.45;;;3.42;;
58926;SDS011;44712;52.530;9.760;2022-09-09T07:01:53;6.15;;;3.25;;
58926;SDS011;44712;52.530;9.760;2022-09-09T07:04:22;7.50;;;3.20;;
58926;SDS011;44712;52.530;9.760;2022-09-09T07:06:49;6.18;;;3.70;;
58926;SDS011;44712;52.530;9.760;2022-09-09T07:09:22;4.97;;;3.05;;
58926;SDS011;44712;52.530;9.760;2022-09-09T07:11:51;5.38;;;3.28;;
58926;SDS011;44712;52.530;9.760;2022-09-09T07:14:21;6.90;;;3.33;;
58926;SDS011;44712;52.530;9.760;2022-09-09T07:16:54;4.22;;;3.03;;
58926;SDS011;44712;52.530;9.760;2022-09-09T07:19:25;6.05;;;3.38;;
58926;SDS011;44712;52.530;9.760;2022-09-09T07:21:53;6.93;;;3.00;;
58926;SDS011;44712;52.530;9.760;2022-09-09T07:24:22;5.38;;;2.92;;
58926;SDS011;44712;52.530;9.760;2022-09-09T07:26:50;4.40;;;2.60;;
58926;SDS011;44712;52.530;9.760;2022-09-09T07:29:18;6.75;;;3.20;;
58926;SDS011;44712;52.530;9.760;2022-09-09T07:31:47;5.70;;;2.75;;
58926;SDS011;44712;52.530;9.760;2022-09-09T07:34:19;4.50;;;2.92;;
58926;SDS011;44712;52.530;9.760;2022-09-09T07:36:46;7.70;;;3.63;;
58926;SDS011;44712;52.530;9.760;2022-09-09T07:39:13;5.55;;;3.55;;
58926;SDS011;44712;52.530;9.760;2022-09-09T07:41:46;10.70;;;4.15;;
58926;SDS011;44712;52.530;9.760;2022-09-09T07:44:20;5.53;;;3.45;;
58926;SDS011;44712;52.530;9.760;2022-09-09T07:46:54;8.57;;;3.97;;
58926;SDS011;44712;52.530;9.760;2022-09-09T07:49:29;6.35;;;3.75;;
58926;SDS011;44712;52.530;9.760;2022-09-09T07:51:59;5.07;;;3.80;;
58926;SDS011;44712;52.530;9.760;2022-09-09T07:54:26;7.88;;;3.92;;
58926;SDS011;44712;52.530;9.760;2022-09-09T07:56:53;5.72;;;3.22;;
58926;SDS011;44712;52.530;9.760;2022-09-09T07:59:22;6.32;;;4.97;;
58926;SDS011;44712;52.530;9.760;2022-09-09T08:01:53;4.00;;;3.60;;
58926;SDS011;44712;52.530;9.760;2022-09-09T08:04:23;6.82;;;3.28;;
58926;SDS011;44712;52.530;9.760;2022-09-09T08:06:53;6.80;;;3.40;;
58926;SDS011;44712;52.530;9.760;2022-09-09T08:09:23;5.30;;;3.08;;
58926;SDS011;44712;52.530;9.760;2022-09-09T08:12:10;5.65;;;3.25;;
58926;SDS011;44712;52.530;9.760;2022-09-09T08:14:39;4.97;;;3.15;;
58926;SDS011;44712;52.530;9.760;2022-09-09T08:17:06;6.03;;;3.03;;
58926;SDS011;44712;52.530;9.760;2022-09-09T08:19:33;5.20;;;2.85;;
58926;SDS011;44712;52.530;9.760;2022-09-09T08:22:08;4.18;;;2.65;;
58926;SDS011;44712;52.530;9.760;2022-09-09T08:24:37;6.57;;;3.58;;
58926;SDS011;44712;52.530;9.760;2022-09-09T08:27:04;5.57;;;3.00;;
58926;SDS011;44712;52.530;9.760;2022-09-09T08:29:31;3.90;;;2.63;;
58926;SDS011;44712;52.530;9.760;2022-09-09T08:31:58;7.40;;;2.78;;
58926;SDS011;44712;52.530;9.760;2022-09-09T08:34:27;5.78;;;2.58;;
58926;SDS011;44712;52.530;9.760;2022-09-09T08:36:57;3.45;;;2.33;;
58926;SDS011;44712;52.530;9.760;2022-09-09T08:39:32;4.60;;;2.50;;
58926;SDS011;44712;52.530;9.760;2022-09-09T08:48:08;3.28;;;2.20;;
58926;SDS011;44712;52.530;9.760;2022-09-09T08:50:49;6.20;;;2.60;;
58926;SDS011;44712;52.530;9.760;2022-09-09T08:53:22;6.45;;;2.70;;
58926;SDS011;44712;52.530;9.760;2022-09-09T08:55:54;6.30;;;2.28;;
58926;SDS011;44712;52.530;9.760;2022-09-09T08:58:32;4.22;;;2.22;;
58926;SDS011;44712;52.530;9.760;2022-09-09T09:12:16;2.83;;;2.00;;
58926;SDS011;44712;52.530;9.760;2022-09-09T09:14:49;2.85;;;1.70;;
58926;SDS011;44712;52.530;9.760;2022-09-09T09:17:21;3.35;;;2.53;;
58926;SDS011;44712;52.530;9.760;2022-09-09T09:19:53;3.42;;;1.73;;
58926;SDS011;44712;52.530;9.760;2022-09-09T09:22:28;3.35;;;1.70;;
58926;SDS011;44712;52.530;9.760;2022-09-09T09:25:17;6.70;;;2.53;;
58926;SDS011;44712;52.530;9.760;2022-09-09T09:27:59;5.55;;;2.33;;
58926;SDS011;44712;52.530;9.760;2022-09-09T09:30:50;2.42;;;2.08;;
58926;SDS011;44712;52.530;9.760;2022-09-09T09:36:02;4.32;;;2.03;;
58926;SDS011;44712;52.530;9.760;2022-09-09T09:38:29;4.93;;;2.00;;
58926;SDS011;44712;52.530;9.760;2022-09-09T09:41:16;5.47;;;2.10;;
58926;SDS011;44712;52.530;9.760;2022-09-09T09:43:52;4.88;;;2.00;;
58926;SDS011;44712;52.530;9.760;2022-09-09T09:46:21;5.47;;;2.25;;
58926;SDS011;44712;52.530;9.760;2022-09-09T09:49:03;2.67;;;1.70;;
58926;SDS011;44712;52.530;9.760;2022-09-09T09:51:32;5.95;;;2.15;;
58926;SDS011;44712;52.530;9.760;2022-09-09T09:56:40;5.63;;;2.13;;
58926;SDS011;44712;52.530;9.760;2022-09-09T09:59:22;6.03;;;2.17;;
58926;SDS011;44712;52.530;9.760;2022-09-09T10:02:31;4.47;;;1.80;;
58926;SDS011;44712;52.530;9.760;2022-09-09T10:05:04;3.53;;;1.80;;
58926;SDS011;44712;52.530;9.760;2022-09-09T10:07:38;3.38;;;2.10;;
58926;SDS011;44712;52.530;9.760;2022-09-09T10:10:05;4.95;;;2.40;;
58926;SDS011;44712;52.530;9.760;2022-09-09T10:12:45;5.30;;;1.90;;
58926;SDS011;44712;52.530;9.760;2022-09-09T10:15:27;5.70;;;2.03;;
58926;SDS011;44712;52.530;9.760;2022-09-09T10:21:02;5.70;;;2.33;;
58926;SDS011;44712;52.530;9.760;2022-09-09T10:24:02;5.95;;;2.17;;
58926;SDS011;44712;52.530;9.760;2022-09-09T10:37:41;4.40;;;2.05;;
58926;SDS011;44712;52.530;9.760;2022-09-09T10:40:38;5.82;;;2.33;;
58926;SDS011;44712;52.530;9.760;2022-09-09T10:53:46;4.57;;;2.30;;
58926;SDS011;44712;52.530;9.760;2022-09-09T10:56:29;5.75;;;2.67;;
58926;SDS011;44712;52.530;9.760;2022-09-09T10:58:59;5.10;;;2.13;;
58926;SDS011;44712;52.530;9.760;2022-09-09T11:01:30;5.30;;;2.50;;
58926;SDS011;44712;52.530;9.760;2022-09-09T11:04:16;5.85;;;2.53;;
58926;SDS011;44712;52.530;9.760;2022-09-09T11:06:48;4.70;;;2.20;;
58926;SDS011;44712;52.530;9.760;2022-09-09T11:09:19;4.82;;;2.80;;
58926;SDS011;44712;52.530;9.760;2022-09-09T11:11:52;5.85;;;2.72;;
58926;SDS011;44712;52.530;9.760;2022-09-09T11:16:56;6.63;;;2.47;;
58926;SDS011;44712;52.530;9.760;2022-09-09T11:21:56;7.80;;;2.50;;
58926;SDS011;44712;52.530;9.760;2022-09-09T11:24:31;4.82;;;2.22;;
58926;SDS011;44712;52.530;9.760;2022-09-09T11:27:13;5.25;;;1.75;;
58926;SDS011;44712;52.530;9.760;2022-09-09T11:29:47;4.50;;;2.05;;
58926;SDS011;44712;52.530;9.760;2022-09-09T11:40:57;5.40;;;1.92;;
58926;SDS011;44712;52.530;9.760;2022-09-09T11:43:28;2.70;;;1.45;;
58926;SDS011;44712;52.530;9.760;2022-09-09T11:45:59;5.45;;;1.42;;
58926;SDS011;44712;52.530;9.760;2022-09-09T11:48:31;3.70;;;1.70;;
58926;SDS011;44712;52.530;9.760;2022-09-09T11:51:07;4.78;;;1.50;;
58926;SDS011;44712;52.530;9.760;2022-09-09T11:53:52;3.38;;;1.63;;
58926;SDS011;44712;52.530;9.760;2022-09-09T11:56:25;4.47;;;1.80;;
58926;SDS011;44712;52.530;9.760;2022-09-09T11:58:56;2.75;;;1.60;;
58926;SDS011;44712;52.530;9.760;2022-09-09T12:06:46;3.50;;;1.60;;
58926;SDS011;44712;52.530;9.760;2022-09-09T12:11:50;3.42;;;1.30;;
58926;SDS011;44712;52.530;9.760;2022-09-09T12:14:21;3.80;;;1.90;;
58926;SDS011;44712;52.530;9.760;2022-09-09T12:19:41;4.72;;;1.65;;
58926;SDS011;44712;52.530;9.760;2022-09-09T12:22:16;3.25;;;2.00;;
58926;SDS011;44712;52.530;9.760;2022-09-09T12:30:23;3.70;;;1.50;;
58926;SDS011;44712;52.530;9.760;2022-09-09T12:33:01;4.05;;;1.40;;
58926;SDS011;44712;52.530;9.760;2022-09-09T12:35:34;2.03;;;1.25;;
58926;SDS011;44712;52.530;9.760;2022-09-09T12:38:04;3.67;;;1.73;;
58926;SDS011;44712;52.530;9.760;2022-09-09T12:40:33;2.78;;;1.60;;
58926;SDS011;44712;52.530;9.760;2022-09-09T12:43:18;3.22;;;1.40;;
58926;SDS011;44712;52.530;9.760;2022-09-09T12:45:48;2.88;;;1.30;;
58926;SDS011;44712;52.530;9.760;2022-09-09T12:48:17;2.70;;;1.20;;
58926;SDS011;44712;52.530;9.760;2022-09-09T12:50:47;4.10;;;1.30;;
58926;SDS011;44712;52.530;9.760;2022-09-09T12:53:26;13.18;;;1.30;;
58926;SDS011;44712;52.530;9.760;2022-09-09T12:56:00;2.55;;;0.90;;
58926;SDS011;44712;52.530;9.760;2022-09-09T12:58:31;2.78;;;0.82;;
58926;SDS011;44712;52.530;9.760;2022-09-09T13:00:59;1.80;;;0.70;;
58926;SDS011;44712;52.530;9.760;2022-09-09T13:03:27;1.00;;;0.75;;
58926;SDS011;44712;52.530;9.760;2022-09-09T13:05:57;2.03;;;1.05;;
58926;SDS011;44712;52.530;9.760;2022-09-09T13:08:28;2.25;;;1.20;;
58926;SDS011;44712;52.530;9.760;2022-09-09T13:11:00;1.90;;;0.95;;
58926;SDS011;44712;52.530;9.760;2022-09-09T13:13:37;1.17;;;0.70;;
58926;SDS011;44712;52.530;9.760;2022-09-09T13:16:06;2.85;;;0.95;;
58926;SDS011;44712;52.530;9.760;2022-09-09T13:18:46;1.65;;;1.05;;
58926;SDS011;44712;52.530;9.760;2022-09-09T13:21:13;1.23;;;0.80;;
58926;SDS011;44712;52.530;9.760;2022-09-09T13:23:40;2.13;;;1.00;;
58926;SDS011;44712;52.530;9.760;2022-09-09T13:26:20;1.83;;;0.90;;
58926;SDS011;44712;52.530;9.760;2022-09-09T13:28:50;2.83;;;0.90;;
58926;SDS011;44712;52.530;9.760;2022-09-09T13:33:59;1.38;;;0.70;;
58926;SDS011;44712;52.530;9.760;2022-09-09T13:36:40;2.28;;;0.93;;
58926;SDS011;44712;52.530;9.760;2022-09-09T13:39:17;2.40;;;0.90;;
58926;SDS011;44712;52.530;9.760;2022-09-09T13:41:45;2.20;;;0.98;;
58926;SDS011;44712;52.530;9.760;2022-09-09T13:44:20;3.40;;;1.10;;
58926;SDS011;44712;52.530;9.760;2022-09-09T13:47:15;2.08;;;1.00;;
58926;SDS011;44712;52.530;9.760;2022-09-09T13:49:47;2.30;;;1.15;;
58926;SDS011;44712;52.530;9.760;2022-09-09T13:52:14;3.05;;;1.30;;
58926;SDS011;44712;52.530;9.760;2022-09-09T13:54:46;2.35;;;1.00;;
58926;SDS011;44712;52.530;9.760;2022-09-09T13:57:22;2.72;;;1.30;;
58926;SDS011;44712;52.530;9.760;2022-09-09T13:59:52;2.40;;;1.25;;
58926;SDS011;44712;52.530;9.760;2022-09-09T14:02:36;3.25;;;1.23;;
58926;SDS011;44712;52.530;9.760;2022-09-09T14:05:05;1.77;;;1.13;;
58926;SDS011;44712;52.530;9.760;2022-09-09T14:07:32;3.42;;;1.20;;
58926;SDS011;44712;52.530;9.760;2022-09-09T14:09:59;3.13;;;1.30;;
58926;SDS011;44712;52.530;9.760;2022-09-09T14:12:26;3.38;;;1.40;;
58926;SDS011;44712;52.530;9.760;2022-09-09T14:14:54;3.50;;;1.50;;
58926;SDS011;44712;52.530;9.760;2022-09-09T14:17:21;2.55;;;1.30;;
58926;SDS011;44712;52.530;9.760;2022-09-09T14:19:48;2.97;;;1.25;;
58926;SDS011;44712;52.530;9.760;2022-09-09T14:22:15;3.67;;;1.40;;
58926;SDS011;44712;52.530;9.760;2022-09-09T14:24:41;3.40;;;1.23;;
58926;SDS011;44712;52.530;9.760;2022-09-09T14:27:08;2.97;;;1.30;;
58926;SDS011;44712;52.530;9.760;2022-09-09T14:29:35;2.42;;;1.10;;
58926;SDS011;44712;52.530;9.760;2022-09-09T14:32:01;3.90;;;1.30;;
58926;SDS011;44712;52.530;9.760;2022-09-09T14:34:28;4.85;;;1.40;;
58926;SDS011;44712;52.530;9.760;2022-09-09T14:36:55;3.05;;;1.38;;
58926;SDS011;44712;52.530;9.760;2022-09-09T14:39:21;1.88;;;1.08;;
58926;SDS011;44712;52.530;9.760;2022-09-09T14:41:49;2.58;;;1.20;;
58926;SDS011;44712;52.530;9.760;2022-09-09T14:44:16;4.03;;;1.52;;
58926;SDS011;44712;52.530;9.760;2022-09-09T14:46:43;2.60;;;1.08;;
58926;SDS011;44712;52.530;9.760;2022-09-09T14:49:11;1.95;;;1.20;;
58926;SDS011;44712;52.530;9.760;2022-09-09T14:51:39;1.88;;;1.20;;
58926;SDS011;44712;52.530;9.760;2022-09-09T14:54:05;3.83;;;1.25;;
58926;SDS011;44712;52.530;9.760;2022-09-09T14:56:32;2.63;;;1.20;;
58926;SDS011;44712;52.530;9.760;2022-09-09T14:59:00;4.05;;;1.30;;
58926;SDS011;44712;52.530;9.760;2022-09-09T15:01:28;1.75;;;1.10;;
58926;SDS011;44712;52.530;9.760;2022-09-09T15:03:59;2.28;;;1.00;;
58926;SDS011;44712;52.530;9.760;2022-09-09T15:06:29;2.22;;;1.20;;
58926;SDS011;44712;52.530;9.760;2022-09-09T15:08:59;4.15;;;1.27;;
58926;SDS011;44712;52.530;9.760;2022-09-09T15:11:31;3.50;;;1.08;;
58926;SDS011;44712;52.530;9.760;2022-09-09T15:14:04;2.90;;;1.15;;
58926;SDS011;44712;52.530;9.760;2022-09-09T15:16:31;1.30;;;1.00;;
58926;SDS011;44712;52.530;9.760;2022-09-09T15:18:59;4.82;;;1.40;;
58926;SDS011;44712;52.530;9.760;2022-09-09T15:21:27;3.05;;;1.27;;
58926;SDS011;44712;52.530;9.760;2022-09-09T15:23:56;2.45;;;1.10;;
58926;SDS011;44712;52.530;9.760;2022-09-09T15:26:26;3.75;;;1.10;;
58926;SDS011;44712;52.530;9.760;2022-09-09T15:28:53;2.65;;;1.33;;
58926;SDS011;44712;52.530;9.760;2022-09-09T15:31:22;3.35;;;1.33;;
58926;SDS011;44712;52.530;9.760;2022-09-09T15:33:51;3.00;;;1.10;;
58926;SDS011;44712;52.530;9.760;2022-09-09T15:36:21;2.75;;;1.02;;
58926;SDS011;44712;52.530;9.760;2022-09-09T15:38:49;4.20;;;1.35;;
58926;SDS011;44712;52.530;9.760;2022-09-09T15:41:18;1.88;;;1.23;;
58926;SDS011;44712;52.530;9.760;2022-09-09T15:43:46;3.22;;;1.08;;
58926;SDS011;44712;52.530;9.760;2022-09-09T15:46:26;2.85;;;1.05;;
58926;SDS011;44712;52.530;9.760;2022-09-09T15:49:03;3.13;;;1.20;;
58926;SDS011;44712;52.530;9.760;2022-09-09T15:51:55;2.97;;;1.20;;
58926;SDS011;44712;52.530;9.760;2022-09-09T15:54:24;3.35;;;1.15;;
58926;SDS011;44712;52.530;9.760;2022-09-09T15:56:56;1.83;;;1.02;;
58926;SDS011;44712;52.530;9.760;2022-09-09T15:59:24;4.07;;;1.50;;
58926;SDS011;44712;52.530;9.760;2022-09-09T16:01:54;2.38;;;1.50;;
58926;SDS011;44712;52.530;9.760;2022-09-09T16:04:22;2.05;;;1.27;;
58926;SDS011;44712;52.530;9.760;2022-09-09T16:06:50;3.33;;;1.15;;
58926;SDS011;44712;52.530;9.760;2022-09-09T16:09:21;3.55;;;1.20;;
58926;SDS011;44712;52.530;9.760;2022-09-09T16:11:48;3.17;;;1.40;;
58926;SDS011;44712;52.530;9.760;2022-09-09T16:14:15;2.67;;;1.23;;
58926;SDS011;44712;52.530;9.760;2022-09-09T16:16:42;3.58;;;1.30;;
58926;SDS011;44712;52.530;9.760;2022-09-09T16:19:09;5.03;;;1.50;;
58926;SDS011;44712;52.530;9.760;2022-09-09T16:21:40;3.72;;;1.50;;
58926;SDS011;44712;52.530;9.760;2022-09-09T16:24:09;1.98;;;1.10;;
58926;SDS011;44712;52.530;9.760;2022-09-09T16:26:40;1.88;;;1.10;;
58926;SDS011;44712;52.530;9.760;2022-09-09T16:29:11;2.47;;;1.45;;
58926;SDS011;44712;52.530;9.760;2022-09-09T16:31:39;4.63;;;1.30;;
58926;SDS011;44712;52.530;9.760;2022-09-09T16:34:07;3.30;;;1.40;;
58926;SDS011;44712;52.530;9.760;2022-09-09T16:36:36;4.38;;;1.40;;
58926;SDS011;44712;52.530;9.760;2022-09-09T16:39:09;3.05;;;1.27;;
58926;SDS011;44712;52.530;9.760;2022-09-09T16:41:38;3.10;;;1.15;;
58926;SDS011;44712;52.530;9.760;2022-09-09T16:44:07;2.97;;;1.52;;
58926;SDS011;44712;52.530;9.760;2022-09-09T16:46:39;1.95;;;1.00;;
58926;SDS011;44712;52.530;9.760;2022-09-09T16:49:09;3.93;;;1.20;;
58926;SDS011;44712;52.530;9.760;2022-09-09T16:51:38;2.92;;;1.33;;
58926;SDS011;44712;52.530;9.760;2022-09-09T16:54:06;1.58;;;1.20;;
58926;SDS011;44712;52.530;9.760;2022-09-09T16:56:36;3.20;;;1.38;;
58926;SDS011;44712;52.530;9.760;2022-09-09T16:59:06;4.18;;;1.40;;
58926;SDS011;44712;52.530;9.760;2022-09-09T17:01:37;2.13;;;1.10;;
58926;SDS011;44712;52.530;9.760;2022-09-09T17:04:08;1.55;;;1.15;;
58926;SDS011;44712;52.530;9.760;2022-09-09T17:06:41;3.38;;;1.52;;
58926;SDS011;44712;52.530;9.760;2022-09-09T17:09:11;3.50;;;1.50;;
58926;SDS011;44712;52.530;9.760;2022-09-09T17:11:39;2.40;;;1.67;;
58926;SDS011;44712;52.530;9.760;2022-09-09T17:14:07;3.83;;;1.25;;
58926;SDS011;44712;52.530;9.760;2022-09-09T17:16:35;2.38;;;1.17;;
58926;SDS011;44712;52.530;9.760;2022-09-09T17:19:05;3.97;;;1.55;;
58926;SDS011;44712;52.530;9.760;2022-09-09T17:21:33;5.82;;;1.55;;
58926;SDS011;44712;52.530;9.760;2022-09-09T17:24:00;2.22;;;1.40;;